Time;durP1;ratioP1;P1;durP2;ratioP2;P2;SDS_P1;SDS_P2;PMS_P1;PMS_P2;Temp;Humidity;BMP_temperature;BMP_pressure;BME280_temperature;BME280_humidity;BME280_pressure;Samples;Min_cycle;Max_cycle;Signal;HPM_P1;HPM_P2
2022/04/10 00:00:31;;;;;;;;;;;;;;;24.63;33.51;94311.13;5040465;28;9172;-60
2022/04/10 00:03:04;;;;;;;;;;;;;;;24.62;33.67;94302.13;5052597;28;9869;-60
2022/04/10 00:05:37;;;;;;;;;;;;;;;24.64;33.95;94315.38;5040172;28;9343;-61
2022/04/10 00:08:07;;;;;;;;;;;;;;;24.63;33.57;94311.88;5036504;28;9601;-60
2022/04/10 00:10:39;;;;;;;;;;;;;;;24.64;33.78;94318.84;5056606;28;8672;-60
2022/04/10 00:13:05;;;;;;;;;;;;;;;24.63;33.89;94311.88;5049665;28;7222;-60
2022/04/10 00:15:44;;;;;;;;;;;;;;;24.63;34.30;94317.38;5042277;28;7144;-60
2022/04/10 00:18:13;;;;;;;;;;;;;;;24.63;33.73;94317.38;5056255;28;7282;-60
2022/04/10 00:20:40;;;;;;;;;;;;;;;24.62;33.75;94315.88;5046468;28;8736;-60
2022/04/10 00:23:10;;;;;;;;;;;;;;;24.62;33.68;94321.38;5047151;28;7268;-61
2022/04/10 00:25:37;;;;;;;;;;;;;;;24.63;34.03;94322.13;5035499;28;7297;-60
2022/04/10 00:28:03;;;;;;;;;;;;;;;24.62;34.23;94321.38;5033934;28;8815;-60
2022/04/10 00:30:32;;;;;;;;;;;;;;;24.63;34.38;94322.13;5035046;28;9175;-60
2022/04/10 00:32:59;;;;;;;;;;;;;;;24.62;33.84;94332.38;5049924;28;7259;-60
2022/04/10 00:35:25;;;;;;;;;;;;;;;24.61;33.97;94336.38;5048921;28;9322;-60
2022/04/10 00:37:57;;;;;;;;;;;;;;;24.62;33.61;94335.13;5036018;28;7126;-60
2022/04/10 00:40:56;;;;;;;;;;;;;;;24.64;34.04;94340.13;5044929;28;7205;-60
2022/04/10 00:43:36;;;;;;;;;;;;;;;24.62;34.20;94339.88;4954089;28;7274;-60
2022/04/10 00:46:40;;;;;;;;;;;;;;;24.61;34.01;94341.88;4947508;28;7240;-60
2022/04/10 00:49:19;;;;;;;;;;;;;;;24.60;34.01;94345.88;4948826;28;9119;-61
2022/04/10 00:52:08;;;;;;;;;;;;;;;24.62;34.15;94343.38;4950242;28;7023;-60
2022/04/10 00:54:34;;;;;;;;;;;;;;;24.61;34.23;94343.88;4943628;28;6990;-60
2022/04/10 00:57:02;;;;;;;;;;;;;;;24.61;33.99;94339.13;4931020;28;8542;-61
2022/04/10 00:59:30;;;;;;;;;;;;;;;24.61;33.99;94339.13;4927829;28;7000;-60
2022/04/10 01:01:57;;;;;;;;;;;;;;;24.61;34.28;94341.88;4948159;28;6986;-60
2022/04/10 01:04:36;;;;;;;;;;;;;;;24.59;34.10;94344.41;4934492;28;9016;-60
2022/04/10 01:07:03;;;;;;;;;;;;;;;24.60;34.15;94345.13;4952773;28;8089;-60
2022/04/10 01:09:33;;;;;;;;;;;;;;;24.61;34.20;94347.38;4945398;28;7188;-60
2022/04/10 01:11:59;;;;;;;;;;;;;;;24.61;33.90;94352.13;4941568;28;9060;-61
2022/04/10 01:14:28;;;;;;;;;;;;;;;24.61;34.00;94350.13;4931552;28;9167;-60
2022/04/10 01:16:57;;;;;;;;;;;;;;;24.61;33.82;94352.88;4929506;28;9160;-60
2022/04/10 01:19:23;;;;;;;;;;;;;;;24.61;34.30;94355.63;4981938;28;8901;-60
2022/04/10 01:21:51;;;;;;;;;;;;;;;24.60;34.31;94356.13;5033523;28;9211;-60
2022/04/10 01:24:18;;;;;;;;;;;;;;;24.60;34.28;94364.38;5027892;28;9223;-60
2022/04/10 01:26:44;;;;;;;;;;;;;;;24.59;34.05;94357.38;5036422;28;8753;-60
2022/04/10 01:29:13;;;;;;;;;;;;;;;24.60;33.85;94356.13;5043748;28;9053;-60
2022/04/10 01:31:44;;;;;;;;;;;;;;;24.58;34.49;94356.63;5034141;28;9086;-60
2022/04/10 01:34:14;;;;;;;;;;;;;;;24.57;34.22;94357.91;5038461;28;7806;-60
2022/04/10 01:36:44;;;;;;;;;;;;;;;24.58;34.40;94358.63;5046107;28;7001;-60
2022/04/10 01:39:12;;;;;;;;;;;;;;;24.58;34.13;94367.63;5052948;28;7215;-60
2022/04/10 01:41:41;;;;;;;;;;;;;;;24.57;34.02;94357.91;5053731;28;9075;-60
2022/04/10 01:44:09;;;;;;;;;;;;;;;24.58;34.50;94364.13;5044843;28;9168;-60
2022/04/10 01:46:39;;;;;;;;;;;;;;;24.56;34.62;94361.88;5041825;28;7262;-60
2022/04/10 01:49:07;;;;;;;;;;;;;;;24.54;34.28;94355.41;5033628;28;7276;-60
2022/04/10 01:51:34;;;;;;;;;;;;;;;24.57;34.09;94359.91;5045673;28;7244;-60
2022/04/10 01:54:00;;;;;;;;;;;;;;;24.56;34.38;94361.88;5053464;28;8987;-60
2022/04/10 01:56:26;;;;;;;;;;;;;;;24.54;34.27;94358.16;5037163;28;6996;-60
2022/04/10 01:58:52;;;;;;;;;;;;;;;24.58;34.16;94358.63;5047264;28;6992;-60
2022/04/10 02:01:20;;;;;;;;;;;;;;;24.58;34.41;94364.13;5047947;28;7440;-60
2022/04/10 02:03:50;;;;;;;;;;;;;;;24.55;34.40;94354.91;5031432;28;7233;-60
2022/04/10 02:06:21;;;;;;;;;;;;;;;24.56;34.16;94356.38;5036632;28;7218;-60
2022/04/10 02:08:47;;;;;;;;;;;;;;;24.56;34.62;94359.13;5034371;28;7450;-60
2022/04/10 02:11:50;;;;;;;;;;;;;;;24.54;34.32;94358.91;5037339;28;7259;-60
2022/04/10 02:14:17;;;;;;;;;;;;;;;24.54;34.56;94361.66;4992371;28;7054;-61
2022/04/10 02:16:54;;;;;;;;;;;;;;;24.54;34.24;94358.91;4985640;28;9164;-60
2022/04/10 02:19:31;;;;;;;;;;;;;;;24.53;34.24;94354.66;4994510;28;9244;-60
2022/04/10 02:21:59;;;;;;;;;;;;;;;24.53;34.38;94357.38;4987624;28;8749;-60
2022/04/10 02:24:44;;;;;;;;;;;;;;;24.54;34.28;94361.66;5004527;28;7270;-60
2022/04/10 02:27:21;;;;;;;;;;;;;;;24.54;34.42;94367.16;4994766;28;8749;-60
2022/04/10 02:29:49;;;;;;;;;;;;;;;24.56;34.38;94367.38;5012931;28;7409;-60
2022/04/10 02:32:24;;;;;;;;;;;;;;;24.56;34.11;94361.88;4994711;28;9067;-60
2022/04/10 02:35:01;;;;;;;;;;;;;;;24.57;34.46;94368.91;4990701;28;9467;-60
2022/04/10 02:37:38;;;;;;;;;;;;;;;24.55;34.55;94362.41;4987639;28;7207;-60
2022/04/10 02:40:10;;;;;;;;;;;;;;;24.55;34.66;94356.91;5007022;28;9050;-60
2022/04/10 02:42:36;;;;;;;;;;;;;;;24.54;34.35;94358.91;4987626;28;9390;-60
2022/04/10 02:45:04;;;;;;;;;;;;;;;24.54;34.35;94358.16;5007529;28;7517;-60
2022/04/10 02:47:32;;;;;;;;;;;;;;;24.52;34.60;94353.16;4998321;28;9429;-60
2022/04/10 02:49:57;;;;;;;;;;;;;;;24.54;34.84;94352.66;5056180;28;7308;-60
2022/04/10 02:52:32;;;;;;;;;;;;;;;24.55;34.74;94359.66;5033016;28;7197;-60
2022/04/10 02:54:57;;;;;;;;;;;;;;;24.51;34.84;94351.66;5047946;28;9190;-60
2022/04/10 02:57:26;;;;;;;;;;;;;;;24.52;34.51;94352.41;5037587;28;7512;-61
2022/04/10 02:59:52;;;;;;;;;;;;;;;24.52;34.85;94349.66;5040769;28;9085;-60
2022/04/10 03:02:21;;;;;;;;;;;;;;;24.53;34.36;94351.91;5030937;28;9081;-60
2022/04/10 03:04:46;;;;;;;;;;;;;;;24.52;34.59;94344.91;5033353;28;7602;-60
2022/04/10 03:07:15;;;;;;;;;;;;;;;24.52;34.66;94358.66;5044508;28;8931;-60
2022/04/10 03:09:42;;;;;;;;;;;;;;;24.51;34.23;94351.66;5033483;28;7863;-60
2022/04/10 03:12:35;;;;;;;;;;;;;;;24.53;34.86;94351.91;5049301;28;9632;-60
2022/04/10 03:15:05;;;;;;;;;;;;;;;24.50;34.61;94347.41;5052867;28;9220;-60
2022/04/10 03:17:31;;;;;;;;;;;;;;;24.52;34.93;94344.16;5064538;28;7134;-60
2022/04/10 03:19:59;;;;;;;;;;;;;;;24.52;35.07;94344.16;5045960;28;7227;-60
2022/04/10 03:22:27;;;;;;;;;;;;;;;24.51;34.49;94343.41;5043351;28;7213;-60
2022/04/10 03:24:58;;;;;;;;;;;;;;;24.52;35.21;94344.16;5034369;28;8643;-60
2022/04/10 03:27:25;;;;;;;;;;;;;;;24.52;35.08;94347.66;5036339;28;7217;-60
2022/04/10 03:29:51;;;;;;;;;;;;;;;24.53;34.78;94351.91;5060285;28;9120;-61
2022/04/10 03:32:26;;;;;;;;;;;;;;;24.51;34.76;94348.91;5051793;28;8871;-60
2022/04/10 03:34:53;;;;;;;;;;;;;;;24.52;34.76;94355.16;5042224;28;8862;-60
2022/04/10 03:37:19;;;;;;;;;;;;;;;24.49;34.87;94351.41;5043573;28;9045;-60
2022/04/10 03:39:45;;;;;;;;;;;;;;;24.48;34.94;94355.44;5020241;28;8764;-61
2022/04/10 03:42:13;;;;;;;;;;;;;;;24.51;34.87;94361.91;5046958;28;9054;-61
2022/04/10 03:44:39;;;;;;;;;;;;;;;24.51;34.68;94365.41;5063486;28;7003;-60
2022/04/10 03:47:05;;;;;;;;;;;;;;;24.49;35.15;94365.16;5046501;28;9074;-60
2022/04/10 03:49:31;;;;;;;;;;;;;;;24.50;34.64;94374.16;5039684;28;8745;-60
2022/04/10 03:51:59;;;;;;;;;;;;;;;24.51;34.14;94373.66;5029892;28;8520;-60
2022/04/10 03:54:25;;;;;;;;;;;;;;;24.50;34.00;94374.16;5046637;28;9053;-60
2022/04/10 03:56:51;;;;;;;;;;;;;;;24.48;34.10;94377.41;5039626;28;9364;-60
2022/04/10 03:59:17;;;;;;;;;;;;;;;24.48;33.64;94382.16;5037534;28;7045;-60
2022/04/10 04:01:43;;;;;;;;;;;;;;;24.46;34.18;94385.44;5052706;28;7252;-60
2022/04/10 04:04:09;;;;;;;;;;;;;;;24.44;34.24;94387.19;5046104;28;8841;-60
2022/04/10 04:06:34;;;;;;;;;;;;;;;24.45;34.22;94389.41;5046645;28;7224;-60
2022/04/10 04:09:03;;;;;;;;;;;;;;;24.42;34.62;94386.94;5031690;28;7274;-60
2022/04/10 04:11:31;;;;;;;;;;;;;;;24.43;34.21;94396.66;5042529;28;8801;-60
2022/04/10 04:13:59;;;;;;;;;;;;;;;24.43;34.19;94396.66;5029590;28;7339;-60
2022/04/10 04:16:27;;;;;;;;;;;;;;;24.45;34.36;94397.66;5036306;28;7507;-60
2022/04/10 04:18:53;;;;;;;;;;;;;;;24.46;34.01;94398.41;5032141;28;7255;-60
2022/04/10 04:21:38;;;;;;;;;;;;;;;24.46;34.16;94406.66;5056116;28;7264;-60
2022/04/10 04:24:04;;;;;;;;;;;;;;;24.48;34.14;94404.16;5034105;28;7268;-60
2022/04/10 04:26:49;;;;;;;;;;;;;;;24.48;34.33;94412.41;5051197;28;6855;-60
2022/04/10 04:29:20;;;;;;;;;;;;;;;24.49;34.60;94416.66;5044471;28;9116;-60
2022/04/10 04:32:15;;;;;;;;;;;;;;;24.48;34.40;94415.91;5039548;28;6988;-60
2022/04/10 04:34:41;;;;;;;;;;;;;;;24.46;34.44;94415.66;5023751;28;9366;-60
2022/04/10 04:37:11;;;;;;;;;;;;;;;24.48;34.50;94424.16;5029767;28;7370;-60
2022/04/10 04:39:39;;;;;;;;;;;;;;;24.49;34.23;94424.91;5001020;28;9443;-60
2022/04/10 04:42:07;;;;;;;;;;;;;;;24.49;34.29;94427.66;5024658;28;9100;-60
2022/04/10 04:44:33;;;;;;;;;;;;;;;24.49;34.63;94420.16;5016325;28;7231;-60
2022/04/10 04:47:00;;;;;;;;;;;;;;;24.50;34.50;94420.91;5011391;28;7157;-60
2022/04/10 04:49:29;;;;;;;;;;;;;;;24.46;34.54;94428.66;5012612;28;9722;-60
2022/04/10 04:51:57;;;;;;;;;;;;;;;24.44;34.54;94431.91;5028278;28;7206;-60
2022/04/10 04:54:30;;;;;;;;;;;;;;;24.47;34.37;94439.16;5017367;28;8935;-60
2022/04/10 04:56:56;;;;;;;;;;;;;;;24.48;34.51;94437.16;5021702;28;9516;-60
2022/04/10 04:59:22;;;;;;;;;;;;;;;24.50;34.26;94437.41;5025658;28;7008;-60
2022/04/10 05:01:56;;;;;;;;;;;;;;;24.46;34.01;94440.41;5018039;28;7310;-60
2022/04/10 05:04:28;;;;;;;;;;;;;;;24.42;34.04;94439.91;5009412;28;9460;-60
2022/04/10 05:06:55;;;;;;;;;;;;;;;24.41;33.88;94443.91;5013166;28;7363;-60
2022/04/10 05:09:47;;;;;;;;;;;;;;;24.44;33.96;94442.91;5006268;28;7748;-60
2022/04/10 05:12:18;;;;;;;;;;;;;;;24.46;33.30;94442.41;5035396;28;9596;-60
2022/04/10 05:15:23;;;;;;;;;;;;;;;24.45;33.66;94455.41;5041156;28;9089;-60
2022/04/10 05:17:55;;;;;;;;;;;;;;;24.45;33.49;94457.38;4921249;29;9027;-60
2022/04/10 05:20:23;;;;;;;;;;;;;;;24.41;33.23;94459.66;4939755;28;7387;-60
2022/04/10 05:22:59;;;;;;;;;;;;;;;24.42;32.95;94464.66;4918195;29;9094;-60
2022/04/10 05:25:37;;;;;;;;;;;;;;;24.37;33.22;94465.41;4941792;28;8245;-60
2022/04/10 05:28:24;;;;;;;;;;;;;;;24.37;33.53;94468.16;4942002;28;9145;-60
2022/04/10 05:31:01;;;;;;;;;;;;;;;24.31;33.10;94470.16;4938260;28;7084;-60
2022/04/10 05:33:36;;;;;;;;;;;;;;;24.27;33.70;94471.66;4941089;28;8730;-60
2022/04/10 05:36:30;;;;;;;;;;;;;;;24.25;34.03;94465.91;4924146;29;9014;-60
2022/04/10 05:38:58;;;;;;;;;;;;;;;24.22;34.03;94472.41;4929605;28;9440;-60
2022/04/10 05:41:50;;;;;;;;;;;;;;;24.22;33.80;94469.66;4928263;28;9545;-60
2022/04/10 05:44:28;;;;;;;;;;;;;;;24.26;33.93;94487.41;4923296;28;7254;-60
2022/04/10 05:47:04;;;;;;;;;;;;;;;24.28;33.46;94484.91;4934289;29;7162;-60
2022/04/10 05:49:43;;;;;;;;;;;;;;;24.30;34.06;94482.41;5034263;28;7076;-60
2022/04/10 05:52:09;;;;;;;;;;;;;;;24.33;33.74;94486.16;5043087;28;7535;-60
2022/04/10 05:55:17;;;;;;;;;;;;;;;24.37;34.02;94490.16;5048472;28;7323;-60
2022/04/10 05:57:44;;;;;;;;;;;;;;;24.34;34.08;94495.88;4966824;28;9147;-60
2022/04/10 06:00:14;;;;;;;;;;;;;;;24.33;33.96;94489.66;4986064;28;9154;-60
2022/04/10 06:02:41;;;;;;;;;;;;;;;24.33;33.88;94495.16;4983520;28;8938;-60
2022/04/10 06:05:17;;;;;;;;;;;;;;;24.36;33.62;94502.38;4981233;28;9061;-60
2022/04/10 06:07:44;;;;;;;;;;;;;;;24.37;34.05;94492.91;4966163;28;8729;-60
2022/04/10 06:10:21;;;;;;;;;;;;;;;24.39;33.91;94503.38;4971700;28;8076;-60
2022/04/10 06:12:48;;;;;;;;;;;;;;;24.39;33.87;94501.41;4984438;28;7545;-60
2022/04/10 06:15:25;;;;;;;;;;;;;;;24.40;34.21;94502.88;4965569;28;7275;-60
2022/04/10 06:18:04;;;;;;;;;;;;;;;24.42;33.86;94502.41;4989130;28;9388;-60
2022/04/10 06:20:35;;;;;;;;;;;;;;;24.42;34.15;94510.66;4970775;28;9047;-60
2022/04/10 06:23:13;;;;;;;;;;;;;;;24.44;34.21;94511.66;4957797;28;8788;-61
2022/04/10 06:25:41;;;;;;;;;;;;;;;24.44;33.97;94519.91;4969954;28;9026;-61
2022/04/10 06:28:09;;;;;;;;;;;;;;;24.45;34.45;94520.63;5008633;28;9105;-60
2022/04/10 06:30:44;;;;;;;;;;;;;;;24.41;34.17;94515.38;5054560;28;9080;-60
2022/04/10 06:33:14;;;;;;;;;;;;;;;24.40;34.28;94524.16;5039447;28;8847;-61
2022/04/10 06:36:18;;;;;;;;;;;;;;;24.40;34.25;94518.66;5036412;28;7440;-60
2022/04/10 06:38:44;;;;;;;;;;;;;;;24.42;34.62;94527.13;5038140;28;8991;-60
2022/04/10 06:41:17;;;;;;;;;;;;;;;24.41;34.29;94531.13;5034874;28;8993;-60
2022/04/10 06:43:53;;;;;;;;;;;;;;;24.38;34.53;94535.63;5030583;28;7600;-60
2022/04/10 06:46:23;;;;;;;;;;;;;;;24.38;34.34;94523.91;5032954;28;6997;-60
2022/04/10 06:48:52;;;;;;;;;;;;;;;24.38;34.73;94532.88;5037481;28;9302;-61
2022/04/10 06:51:24;;;;;;;;;;;;;;;24.41;34.82;94531.13;5039909;28;8983;-61
2022/04/10 06:53:57;;;;;;;;;;;;;;;24.42;35.10;94536.16;5036078;28;8727;-61
2022/04/10 06:56:23;;;;;;;;;;;;;;;24.44;35.11;94532.88;5054097;28;8809;-61
2022/04/10 06:58:49;;;;;;;;;;;;;;;24.43;35.04;94529.38;5029784;28;7332;-61
2022/04/10 07:01:17;;;;;;;;;;;;;;;24.44;35.31;94530.91;5038981;28;7157;-61
2022/04/10 07:03:54;;;;;;;;;;;;;;;24.45;35.14;94537.88;5050913;28;9045;-61
2022/04/10 07:06:22;;;;;;;;;;;;;;;24.47;34.83;94535.38;5048734;28;9069;-61
2022/04/10 07:09:05;;;;;;;;;;;;;;;24.48;35.00;94539.63;5033894;28;7266;-61
2022/04/10 07:11:32;;;;;;;;;;;;;;;24.46;34.87;94539.38;5043759;28;8788;-61
2022/04/10 07:14:16;;;;;;;;;;;;;;;24.47;34.96;94535.38;5042059;28;9393;-61
2022/04/10 07:16:44;;;;;;;;;;;;;;;24.44;35.07;94524.63;5043350;28;9367;-61
2022/04/10 07:19:12;;;;;;;;;;;;;;;24.48;35.52;94536.88;5056528;28;7251;-61
2022/04/10 07:24:31;;;;;;;;;;;;;;;24.44;35.07;94530.91;5034415;28;7048;-61
2022/04/10 07:27:04;;;;;;;;;;;;;;;24.46;35.71;94538.63;5040082;28;9336;-61
2022/04/10 07:29:43;;;;;;;;;;;;;;;24.47;35.48;94537.38;5040308;28;9133;-61
2022/04/10 07:32:10;;;;;;;;;;;;;;;24.48;35.52;94536.13;5045171;28;7334;-61
2022/04/10 07:34:36;;;;;;;;;;;;;;;24.46;35.73;94538.63;5045175;28;7090;-61
2022/04/10 07:37:10;;;;;;;;;;;;;;;24.48;35.63;94530.63;5031233;28;7282;-61
2022/04/10 07:39:36;;;;;;;;;;;;;;;24.48;35.71;94536.13;5045202;28;7245;-61
2022/04/10 07:42:30;;;;;;;;;;;;;;;24.48;35.71;94545.13;5048323;28;7184;-61
2022/04/10 07:45:00;;;;;;;;;;;;;;;24.50;35.56;94548.13;4964786;28;7292;-61
2022/04/10 07:47:26;;;;;;;;;;;;;;;24.48;35.11;94547.88;4981568;28;7320;-60
2022/04/10 07:49:54;;;;;;;;;;;;;;;24.48;35.76;94545.13;4956436;28;7255;-59
2022/04/10 07:52:21;;;;;;;;;;;;;;;24.47;35.61;94543.63;4960260;28;9168;-60
2022/04/10 07:54:47;;;;;;;;;;;;;;;24.52;35.64;94553.88;4960158;28;8812;-60
2022/04/10 07:57:16;;;;;;;;;;;;;;;24.53;35.41;94554.63;4975146;28;9098;-60
2022/04/10 07:59:43;;;;;;;;;;;;;;;24.52;35.41;94553.13;4979690;28;7816;-60
2022/04/10 08:02:12;;;;;;;;;;;;;;;24.54;35.40;94553.38;4977363;28;7253;-60
2022/04/10 08:04:44;;;;;;;;;;;;;;;24.55;35.69;94552.91;4977317;28;8786;-60
2022/04/10 08:07:23;;;;;;;;;;;;;;;24.59;36.03;94563.63;4981185;28;9666;-60
2022/04/10 08:09:53;;;;;;;;;;;;;;;24.58;35.42;94557.38;4972601;28;9117;-60
2022/04/10 08:12:29;;;;;;;;;;;;;;;24.61;35.68;94556.38;4988660;28;9585;-60
2022/04/10 08:15:00;;;;;;;;;;;;;;;24.61;35.27;94559.13;4976896;28;9378;-60
2022/04/10 08:17:41;;;;;;;;;;;;;;;24.65;35.22;94558.88;4967031;28;8818;-61
2022/04/10 08:20:08;;;;;;;;;;;;;;;24.64;35.33;94554.66;4976908;28;7137;-60
2022/04/10 08:22:39;;;;;;;;;;;;;;;24.63;35.46;94556.63;5028883;28;9070;-60
2022/04/10 08:25:12;;;;;;;;;;;;;;;24.65;35.08;94565.13;5054210;28;7274;-60
2022/04/10 08:27:40;;;;;;;;;;;;;;;24.66;35.57;94563.88;5042098;28;9058;-61
2022/04/10 08:30:10;;;;;;;;;;;;;;;24.67;35.20;94570.13;5062574;28;9220;-60
2022/04/10 08:32:38;;;;;;;;;;;;;;;24.68;36.74;94564.13;5034131;28;7271;-60
2022/04/10 08:35:05;;;;;;;;;;;;;;;24.66;35.43;94569.38;5045520;28;7242;-60
2022/04/10 08:37:31;;;;;;;;;;;;;;;24.69;36.37;94573.13;5038274;28;7086;-60
2022/04/10 08:40:00;;;;;;;;;;;;;;;24.67;36.08;94576.38;5039206;28;9810;-60
2022/04/10 08:42:29;;;;;;;;;;;;;;;24.66;35.86;94574.13;5035835;28;7360;-61
2022/04/10 08:44:58;;;;;;;;;;;;;;;24.64;36.07;94577.38;5051704;28;7156;-60
2022/04/10 08:47:38;;;;;;;;;;;;;;;24.64;36.12;94582.88;5045422;28;7264;-60
2022/04/10 08:50:07;;;;;;;;;;;;;;;24.66;35.64;94583.13;5043106;28;7258;-60
2022/04/10 08:52:33;;;;;;;;;;;;;;;24.69;35.92;94584.88;5055604;28;7480;-61
2022/04/10 08:55:06;;;;;;;;;;;;;;;24.70;35.94;94594.66;5045015;28;6860;-61
2022/04/10 08:57:35;;;;;;;;;;;;;;;24.71;36.32;94587.88;5037850;28;7302;-61
2022/04/10 09:00:03;;;;;;;;;;;;;;;24.71;36.43;94589.88;5046449;28;9085;-61
2022/04/10 09:02:44;;;;;;;;;;;;;;;24.72;35.48;94591.38;5040324;28;7516;-60
2022/04/10 09:05:16;;;;;;;;;;;;;;;24.73;36.06;94590.13;5033884;28;7906;-60
2022/04/10 09:08:08;;;;;;;;;;;;;;;24.77;36.50;94598.19;5043068;28;6937;-61
2022/04/10 09:11:15;;;;;;;;;;;;;;;24.77;36.01;94592.66;5052197;28;7104;-60
2022/04/10 09:13:48;;;;;;;;;;;;;;;24.77;35.83;94593.44;5038239;28;7069;-61
2022/04/10 09:16:26;;;;;;;;;;;;;;;24.77;36.02;94589.91;5064886;28;9596;-61
2022/04/10 09:19:12;;;;;;;;;;;;;;;24.77;36.31;94584.41;5047897;28;7270;-61
2022/04/10 09:21:55;;;;;;;;;;;;;;;24.77;36.54;94593.44;5038488;28;9200;-61
2022/04/10 09:25:03;;;;;;;;;;;;;;;24.80;36.00;94591.66;5042100;28;7073;-60
2022/04/10 09:27:39;;;;;;;;;;;;;;;24.81;35.88;94584.91;5048184;28;9080;-60
2022/04/10 09:30:10;;;;;;;;;;;;;;;24.78;35.87;94585.91;5040446;28;9407;-61
2022/04/10 09:32:43;;;;;;;;;;;;;;;24.77;35.04;94589.91;5039719;28;9772;-61
2022/04/10 09:35:15;;;;;;;;;;;;;;;24.79;35.67;94593.69;5041247;28;7015;-61
2022/04/10 09:38:01;;;;;;;;;;;;;;;24.78;35.73;94592.16;5048671;28;7231;-61
2022/04/10 09:40:41;;;;;;;;;;;;;;;24.79;35.44;94587.41;5055859;28;9233;-61
2022/04/10 09:43:13;;;;;;;;;;;;;;;24.78;35.45;94588.66;5049873;28;7273;-61
2022/04/10 09:45:44;;;;;;;;;;;;;;;24.82;35.15;94580.91;5056634;28;7680;-61
2022/04/10 09:48:17;;;;;;;;;;;;;;;24.83;35.36;94577.66;5034647;28;9396;-61
2022/04/10 09:50:46;;;;;;;;;;;;;;;24.84;34.53;94573.66;5036229;28;8979;-61
2022/04/10 09:53:12;;;;;;;;;;;;;;;24.87;34.72;94580.16;5044505;28;9588;-61
2022/04/10 09:55:42;;;;;;;;;;;;;;;24.84;34.99;94579.16;5048504;28;7242;-60
2022/04/10 09:58:11;;;;;;;;;;;;;;;24.82;35.31;94580.91;5035403;28;6999;-61
2022/04/10 10:00:42;;;;;;;;;;;;;;;24.82;35.01;94578.16;5036500;28;9111;-61
2022/04/10 10:03:28;;;;;;;;;;;;;;;24.83;34.99;94579.66;5035708;28;9095;-61
2022/04/10 10:05:58;;;;;;;;;;;;;;;24.81;34.84;94569.16;5048307;28;9237;-61
2022/04/10 10:08:28;;;;;;;;;;;;;;;24.84;34.74;94567.41;5034681;28;9330;-61
2022/04/10 10:10:58;;;;;;;;;;;;;;;24.81;36.02;94565.66;5050938;28;9628;-61
2022/04/10 10:13:27;;;;;;;;;;;;;;;24.80;36.42;94567.66;5049586;28;7173;-61
2022/04/10 10:16:04;;;;;;;;;;;;;;;24.79;36.02;94568.91;5051327;28;9099;-61
2022/04/10 10:19:04;;;;;;;;;;;;;;;24.82;36.22;94569.91;5033890;28;8838;-61
2022/04/10 10:21:30;;;;;;;;;;;;;;;24.83;36.03;94568.66;4949774;29;8975;-62
2022/04/10 10:24:10;;;;;;;;;;;;;;;24.83;36.04;94571.41;4936088;29;9025;-62
2022/04/10 10:30:43;;;;;;;;;;;;;;;24.79;36.35;94568.16;4940482;29;7710;-60
2022/04/10 10:33:27;;;;;;;;;;;;;;;24.84;35.81;94572.91;4929802;29;6989;-60
2022/04/10 10:35:59;;;;;;;;;;;;;;;24.83;36.53;94563.91;4931780;28;7706;-60
2022/04/10 10:38:26;;;;;;;;;;;;;;;24.84;36.22;94556.41;4937702;28;8278;-60
2022/04/10 10:41:16;;;;;;;;;;;;;;;24.82;36.70;94556.13;4943203;28;9105;-61
2022/04/10 10:43:51;;;;;;;;;;;;;;;24.81;36.64;94557.41;4894490;29;9105;-61
2022/04/10 10:46:22;;;;;;;;;;;;;;;24.84;36.75;94556.41;4877920;29;9297;-61
2022/04/10 10:49:20;;;;;;;;;;;;;;;24.84;37.21;94548.88;4882403;29;9089;-61
2022/04/10 10:51:54;;;;;;;;;;;;;;;24.86;36.70;94551.88;4875881;29;9373;-61
2022/04/10 10:54:31;;;;;;;;;;;;;;;24.87;37.31;94549.88;4862721;29;9204;-61
2022/04/10 10:56:57;;;;;;;;;;;;;;;24.87;36.86;94549.88;4918064;28;8938;-61
2022/04/10 10:59:42;;;;;;;;;;;;;;;24.88;36.32;94556.91;4942752;28;7319;-62
2022/04/10 11:02:11;;;;;;;;;;;;;;;24.90;37.36;94554.41;4944297;28;9730;-61
2022/04/10 11:04:55;;;;;;;;;;;;;;;24.81;36.44;94547.16;4955389;28;9134;-62
2022/04/10 11:07:25;;;;;;;;;;;;;;;24.77;32.77;94541.16;4957929;28;7023;-61
2022/04/10 11:09:58;;;;;;;;;;;;;;;24.76;31.76;94550.66;4940241;28;6860;-61
2022/04/10 11:12:46;;;;;;;;;;;;;;;24.75;31.97;94542.91;4962573;28;9064;-61
2022/04/10 11:15:21;;;;;;;;;;;;;;;24.71;30.82;94537.63;4967188;28;10024;-61
2022/04/10 11:18:22;;;;;;;;;;;;;;;24.73;31.07;94545.38;4957819;28;9435;-60
2022/04/10 11:21:27;;;;;;;;;;;;;;;24.80;31.39;94539.38;4990882;28;7284;-67
2022/04/10 11:24:02;;;;;;;;;;;;;;;24.83;31.34;94532.91;5056841;28;7197;-65
2022/04/10 11:26:42;;;;;;;;;;;;;;;24.84;31.67;94540.63;5044580;28;7640;-66
2022/04/10 11:29:09;;;;;;;;;;;;;;;24.91;32.14;94526.38;5039975;28;7012;-67
2022/04/10 11:31:44;;;;;;;;;;;;;;;24.98;33.09;94530.63;5041410;28;7092;-68
2022/04/10 11:34:14;;;;;;;;;;;;;;;25.03;32.49;94529.88;5051813;28;7247;-66
2022/04/10 11:36:52;;;;;;;;;;;;;;;25.04;32.96;94526.59;5039936;28;9734;-65
2022/04/10 11:39:25;;;;;;;;;;;;;;;25.06;32.92;94529.59;5038503;28;7051;-65
2022/04/10 11:41:57;;;;;;;;;;;;;;;25.05;32.86;94522.59;5047951;28;8775;-66
2022/04/10 11:44:25;;;;;;;;;;;;;;;25.10;32.92;94529.34;5046517;28;9257;-68
2022/04/10 11:46:53;;;;;;;;;;;;;;;25.12;32.99;94515.84;5037108;28;7256;-67
2022/04/10 11:49:20;;;;;;;;;;;;;;;25.13;33.89;94517.31;5037830;28;7034;-67
2022/04/10 11:52:05;;;;;;;;;;;;;;;25.14;33.66;94516.09;5033782;28;9046;-66
2022/04/10 11:54:35;;;;;;;;;;;;;;;25.17;33.61;94512.31;5033173;28;7198;-67
2022/04/10 11:57:04;;;;;;;;;;;;;;;25.21;32.95;94515.53;5036878;28;7198;-67
2022/04/10 11:59:39;;;;;;;;;;;;;;;25.22;32.96;94520.56;5037447;28;7668;-67
2022/04/10 12:02:09;;;;;;;;;;;;;;;25.27;33.34;94510.78;5034561;28;9094;-68
2022/04/10 12:04:53;;;;;;;;;;;;;;;25.38;33.03;94503.22;5036281;28;9156;-70
2022/04/10 12:07:24;;;;;;;;;;;;;;;25.39;33.61;94506.72;5035287;28;9186;-69
2022/04/10 12:09:59;;;;;;;;;;;;;;;25.39;33.11;94506.72;5035908;28;8567;-67
2022/04/10 12:12:47;;;;;;;;;;;;;;;25.37;33.22;94500.97;5054387;28;7482;-66
2022/04/10 12:15:33;;;;;;;;;;;;;;;25.38;32.96;94505.25;5048475;28;9002;-66
2022/04/10 12:18:21;;;;;;;;;;;;;;;25.33;33.28;94503.25;5046296;28;7335;-66
2022/04/10 12:21:02;;;;;;;;;;;;;;;25.30;32.88;94509.75;5059343;28;8070;-67
2022/04/10 12:23:43;;;;;;;;;;;;;;;25.29;33.18;94503.50;5034233;28;9224;-67
2022/04/10 12:26:15;;;;;;;;;;;;;;;25.31;33.52;94494.75;5042580;28;9164;-66
2022/04/10 12:28:42;;;;;;;;;;;;;;;25.30;33.44;94496.00;5046724;28;7423;-67
2022/04/10 12:31:09;;;;;;;;;;;;;;;25.32;33.15;94499.00;5042788;28;7459;-67
2022/04/10 12:33:40;;;;;;;;;;;;;;;25.31;33.34;94483.75;5036100;28;9156;-66
2022/04/10 12:36:20;;;;;;;;;;;;;;;25.33;33.52;94486.72;5045705;28;7258;-66
2022/04/10 12:38:56;;;;;;;;;;;;;;;25.34;33.92;94479.94;5040315;28;9069;-67
2022/04/10 12:41:33;;;;;;;;;;;;;;;25.32;33.96;94476.97;5041787;28;7617;-66
2022/04/10 12:44:03;;;;;;;;;;;;;;;25.34;34.26;94479.94;5047418;28;9220;-67
2022/04/10 12:46:42;;;;;;;;;;;;;;;25.34;34.24;94474.44;5033481;28;7381;-66
2022/04/10 12:49:15;;;;;;;;;;;;;;;25.36;34.02;94474.69;5041881;28;7167;-66
2022/04/10 12:52:03;;;;;;;;;;;;;;;25.35;33.97;94473.19;5047817;28;7038;-67
2022/04/10 12:54:36;;;;;;;;;;;;;;;25.36;34.01;94471.94;5044006;28;9103;-67
2022/04/10 12:57:13;;;;;;;;;;;;;;;25.38;34.04;94472.19;5040108;28;7290;-67
2022/04/10 12:59:44;;;;;;;;;;;;;;;25.39;34.67;94468.94;5037152;28;7857;-66
2022/04/10 13:02:27;;;;;;;;;;;;;;;25.39;33.79;94477.19;5036283;28;9419;-66
2022/04/10 13:04:55;;;;;;;;;;;;;;;25.39;33.76;94468.19;5034682;28;7474;-69
2022/04/10 13:07:55;;;;;;;;;;;;;;;25.39;34.64;94479.19;5046876;28;8561;-68
2022/04/10 13:10:21;;;;;;;;;;;;;;;25.34;33.87;94471.69;4961211;28;7299;-70
2022/04/10 13:13:11;;;;;;;;;;;;;;;25.37;34.36;94473.44;4971745;28;7365;-70
2022/04/10 13:15:39;;;;;;;;;;;;;;;25.35;34.67;94470.44;4977891;28;7018;-69
2022/04/10 13:18:06;;;;;;;;;;;;;;;25.38;34.43;94474.94;4982154;28;6988;-69
2022/04/10 13:20:37;;;;;;;;;;;;;;;25.39;34.24;94470.94;4981726;28;9386;-69
2022/04/10 13:23:04;;;;;;;;;;;;;;;25.37;34.41;94462.44;4984161;28;7452;-68
2022/04/10 13:25:36;;;;;;;;;;;;;;;25.39;34.82;94470.94;4960710;28;7195;-68
2022/04/10 13:28:06;;;;;;;;;;;;;;;25.41;34.11;94468.41;4980804;28;7060;-68
2022/04/10 13:30:35;;;;;;;;;;;;;;;25.40;34.98;94461.44;4968390;28;8938;-67
2022/04/10 13:33:03;;;;;;;;;;;;;;;25.43;34.26;94455.66;4978548;28;8748;-67
2022/04/10 13:35:29;;;;;;;;;;;;;;;25.45;33.80;94457.19;4979441;28;7025;-67